sensor_id;sensor_type;location;lat;lon;timestamp;P1;durP1;ratioP1;P2;durP2;ratioP2
76846;SDS011;65813;49.546;8.644;2023-04-25T04:18:21;12.48;;;6.53;;
76846;SDS011;65813;49.546;8.644;2023-04-25T04:22:22;10.77;;;5.70;;
76846;SDS011;65813;49.546;8.644;2023-04-25T04:26:23;9.85;;;5.55;;
76846;SDS011;65813;49.546;8.644;2023-04-25T04:30:24;12.73;;;6.47;;
76846;SDS011;65813;49.546;8.644;2023-04-25T04:34:25;13.32;;;6.82;;
76846;SDS011;65813;49.546;8.644;2023-04-25T04:38:25;11.65;;;6.03;;
76846;SDS011;65813;49.546;8.644;2023-04-25T04:42:26;12.98;;;7.03;;
76846;SDS011;65813;49.546;8.644;2023-04-25T04:46:26;14.07;;;7.37;;
76846;SDS011;65813;49.546;8.644;2023-04-25T04:50:27;12.13;;;6.63;;
76846;SDS011;65813;49.546;8.644;2023-04-25T04:54:28;13.33;;;6.97;;
76846;SDS011;65813;49.546;8.644;2023-04-25T04:58:28;13.20;;;7.43;;
76846;SDS011;65813;49.546;8.644;2023-04-25T05:02:29;13.68;;;6.78;;
76846;SDS011;65813;49.546;8.644;2023-04-25T05:06:30;12.80;;;7.17;;
76846;SDS011;65813;49.546;8.644;2023-04-25T05:10:31;12.73;;;7.30;;
76846;SDS011;65813;49.546;8.644;2023-04-25T05:14:31;12.55;;;7.25;;
76846;SDS011;65813;49.546;8.644;2023-04-25T05:18:32;13.05;;;8.02;;
76846;SDS011;65813;49.546;8.644;2023-04-25T05:22:32;12.20;;;7.30;;
76846;SDS011;65813;49.546;8.644;2023-04-25T05:26:32;13.07;;;6.83;;
76846;SDS011;65813;49.546;8.644;2023-04-25T05:30:33;11.88;;;6.60;;
76846;SDS011;65813;49.546;8.644;2023-04-25T05:34:34;10.88;;;5.68;;
76846;SDS011;65813;49.546;8.644;2023-04-25T05:38:35;12.55;;;6.85;;
76846;SDS011;65813;49.546;8.644;2023-04-25T05:42:35;12.17;;;7.17;;
76846;SDS011;65813;49.546;8.644;2023-04-25T05:46:35;14.50;;;7.90;;
76846;SDS011;65813;49.546;8.644;2023-04-25T05:50:36;15.10;;;7.97;;
76846;SDS011;65813;49.546;8.644;2023-04-25T05:54:36;16.13;;;8.73;;
76846;SDS011;65813;49.546;8.644;2023-04-25T05:58:36;24.63;;;12.17;;
76846;SDS011;65813;49.546;8.644;2023-04-25T06:02:37;18.83;;;9.63;;
76846;SDS011;65813;49.546;8.644;2023-04-25T06:06:37;15.20;;;8.13;;
76846;SDS011;65813;49.546;8.644;2023-04-25T06:10:38;22.93;;;14.43;;
76846;SDS011;65813;49.546;8.644;2023-04-25T06:14:38;12.23;;;7.75;;
76846;SDS011;65813;49.546;8.644;2023-04-25T06:18:38;11.80;;;6.50;;
76846;SDS011;65813;49.546;8.644;2023-04-25T06:22:39;11.93;;;6.97;;
76846;SDS011;65813;49.546;8.644;2023-04-25T06:26:39;11.57;;;6.13;;
76846;SDS011;65813;49.546;8.644;2023-04-25T06:30:39;9.50;;;5.77;;
76846;SDS011;65813;49.546;8.644;2023-04-25T06:34:40;12.07;;;5.50;;
76846;SDS011;65813;49.546;8.644;2023-04-25T06:38:40;10.43;;;5.73;;
76846;SDS011;65813;49.546;8.644;2023-04-25T06:42:41;9.70;;;4.63;;
76846;SDS011;65813;49.546;8.644;2023-04-25T06:46:42;10.75;;;5.45;;
76846;SDS011;65813;49.546;8.644;2023-04-25T06:50:42;10.65;;;4.80;;
76846;SDS011;65813;49.546;8.644;2023-04-25T06:54:42;12.47;;;5.00;;
76846;SDS011;65813;49.546;8.644;2023-04-25T06:58:43;9.93;;;4.57;;
76846;SDS011;65813;49.546;8.644;2023-04-25T07:02:43;9.63;;;4.70;;
76846;SDS011;65813;49.546;8.644;2023-04-25T07:06:44;11.03;;;5.13;;
76846;SDS011;65813;49.546;8.644;2023-04-25T07:10:44;13.30;;;4.82;;
76846;SDS011;65813;49.546;8.644;2023-04-25T07:14:46;11.25;;;5.35;;
76846;SDS011;65813;49.546;8.644;2023-04-25T07:18:46;12.80;;;5.50;;
76846;SDS011;65813;49.546;8.644;2023-04-25T07:22:46;11.83;;;5.10;;
76846;SDS011;65813;49.546;8.644;2023-04-25T07:26:47;13.80;;;4.87;;
76846;SDS011;65813;49.546;8.644;2023-04-25T07:30:47;12.63;;;5.30;;
76846;SDS011;65813;49.546;8.644;2023-04-25T07:34:47;11.03;;;4.70;;
76846;SDS011;65813;49.546;8.644;2023-04-25T07:38:47;11.50;;;5.37;;
76846;SDS011;65813;49.546;8.644;2023-04-25T07:42:48;12.13;;;5.23;;
76846;SDS011;65813;49.546;8.644;2023-04-25T07:46:48;12.73;;;5.68;;
76846;SDS011;65813;49.546;8.644;2023-04-25T07:50:48;18.43;;;5.73;;
76846;SDS011;65813;49.546;8.644;2023-04-25T07:54:49;12.48;;;5.65;;
76846;SDS011;65813;49.546;8.644;2023-04-25T07:58:50;15.95;;;6.20;;
76846;SDS011;65813;49.546;8.644;2023-04-25T08:02:50;14.90;;;6.30;;
76846;SDS011;65813;49.546;8.644;2023-04-25T08:06:51;13.27;;;6.20;;
76846;SDS011;65813;49.546;8.644;2023-04-25T08:10:52;13.25;;;5.35;;
76846;SDS011;65813;49.546;8.644;2023-04-25T08:14:52;9.47;;;4.80;;
76846;SDS011;65813;49.546;8.644;2023-04-25T08:18:53;13.18;;;5.53;;
76846;SDS011;65813;49.546;8.644;2023-04-25T08:22:53;10.60;;;4.90;;
76846;SDS011;65813;49.546;8.644;2023-04-25T08:26:53;9.23;;;4.70;;
76846;SDS011;65813;49.546;8.644;2023-04-25T08:30:54;11.30;;;4.53;;
76846;SDS011;65813;49.546;8.644;2023-04-25T08:34:54;10.10;;;4.50;;
76846;SDS011;65813;49.546;8.644;2023-04-25T08:38:55;11.02;;;3.63;;
76846;SDS011;65813;49.546;8.644;2023-04-25T08:42:58;9.07;;;3.58;;
76846;SDS011;65813;49.546;8.644;2023-04-25T08:47:03;12.52;;;4.07;;
76846;SDS011;65813;49.546;8.644;2023-04-25T08:51:04;9.38;;;3.85;;
76846;SDS011;65813;49.546;8.644;2023-04-25T08:55:07;9.15;;;4.13;;
76846;SDS011;65813;49.546;8.644;2023-04-25T08:59:09;8.25;;;3.67;;
76846;SDS011;65813;49.546;8.644;2023-04-25T09:03:11;9.55;;;4.75;;
76846;SDS011;65813;49.546;8.644;2023-04-25T09:07:11;11.85;;;4.50;;
76846;SDS011;65813;49.546;8.644;2023-04-25T09:11:12;21.35;;;12.75;;
76846;SDS011;65813;49.546;8.644;2023-04-25T09:15:13;8.52;;;3.55;;
76846;SDS011;65813;49.546;8.644;2023-04-25T09:23:46;9.23;;;3.95;;
76846;SDS011;65813;49.546;8.644;2023-04-25T09:27:52;8.68;;;3.53;;
76846;SDS011;65813;49.546;8.644;2023-04-25T09:31:55;8.18;;;3.40;;
76846;SDS011;65813;49.546;8.644;2023-04-25T09:36:11;9.25;;;3.60;;
76846;SDS011;65813;49.546;8.644;2023-04-25T09:40:12;11.05;;;3.83;;
76846;SDS011;65813;49.546;8.644;2023-04-25T09:44:12;9.30;;;4.15;;
76846;SDS011;65813;49.546;8.644;2023-04-25T09:48:20;8.38;;;3.58;;
76846;SDS011;65813;49.546;8.644;2023-04-25T09:52:22;10.85;;;4.57;;
76846;SDS011;65813;49.546;8.644;2023-04-25T09:56:23;8.82;;;3.80;;
76846;SDS011;65813;49.546;8.644;2023-04-25T10:00:26;9.60;;;3.83;;
76846;SDS011;65813;49.546;8.644;2023-04-25T10:04:28;9.07;;;3.95;;
76846;SDS011;65813;49.546;8.644;2023-04-25T10:08:34;9.35;;;4.25;;
76846;SDS011;65813;49.546;8.644;2023-04-25T10:12:36;9.32;;;3.88;;
76846;SDS011;65813;49.546;8.644;2023-04-25T10:16:37;9.38;;;4.07;;
76846;SDS011;65813;49.546;8.644;2023-04-25T10:20:38;10.85;;;3.72;;
76846;SDS011;65813;49.546;8.644;2023-04-25T10:24:39;8.70;;;4.22;;
76846;SDS011;65813;49.546;8.644;2023-04-25T10:28:56;8.93;;;3.90;;
76846;SDS011;65813;49.546;8.644;2023-04-25T10:33:00;9.98;;;4.18;;
76846;SDS011;65813;49.546;8.644;2023-04-25T10:37:01;9.17;;;3.90;;
76846;SDS011;65813;49.546;8.644;2023-04-25T10:41:04;7.50;;;3.60;;
76846;SDS011;65813;49.546;8.644;2023-04-25T10:45:05;7.95;;;3.65;;
76846;SDS011;65813;49.546;8.644;2023-04-25T10:49:06;8.60;;;3.78;;
76846;SDS011;65813;49.546;8.644;2023-04-25T10:53:14;6.53;;;2.63;;
76846;SDS011;65813;49.546;8.644;2023-04-25T10:57:26;7.65;;;3.58;;
76846;SDS011;65813;49.546;8.644;2023-04-25T11:05:32;7.40;;;2.73;;
76846;SDS011;65813;49.546;8.644;2023-04-25T11:09:34;6.72;;;2.65;;
76846;SDS011;65813;49.546;8.644;2023-04-25T11:13:40;6.88;;;2.50;;
76846;SDS011;65813;49.546;8.644;2023-04-25T11:17:41;6.60;;;2.40;;
76846;SDS011;65813;49.546;8.644;2023-04-25T11:21:41;4.65;;;2.05;;
76846;SDS011;65813;49.546;8.644;2023-04-25T11:25:42;5.40;;;2.43;;
76846;SDS011;65813;49.546;8.644;2023-04-25T11:29:42;5.68;;;2.67;;
76846;SDS011;65813;49.546;8.644;2023-04-25T11:33:42;5.43;;;2.60;;
76846;SDS011;65813;49.546;8.644;2023-04-25T11:37:44;6.22;;;2.45;;
76846;SDS011;65813;49.546;8.644;2023-04-25T11:41:45;6.65;;;2.28;;
76846;SDS011;65813;49.546;8.644;2023-04-25T11:45:47;8.05;;;2.50;;
76846;SDS011;65813;49.546;8.644;2023-04-25T11:49:49;9.32;;;4.25;;
76846;SDS011;65813;49.546;8.644;2023-04-25T11:53:53;9.93;;;2.67;;
76846;SDS011;65813;49.546;8.644;2023-04-25T11:57:53;7.03;;;2.60;;
76846;SDS011;65813;49.546;8.644;2023-04-25T12:01:54;6.65;;;2.15;;
76846;SDS011;65813;49.546;8.644;2023-04-25T12:05:55;4.15;;;2.22;;
76846;SDS011;65813;49.546;8.644;2023-04-25T12:14:07;6.93;;;3.42;;
76846;SDS011;65813;49.546;8.644;2023-04-25T12:18:08;9.07;;;2.67;;
76846;SDS011;65813;49.546;8.644;2023-04-25T12:22:21;10.87;;;2.93;;
76846;SDS011;65813;49.546;8.644;2023-04-25T12:26:23;6.90;;;2.97;;
76846;SDS011;65813;49.546;8.644;2023-04-25T12:30:23;5.37;;;3.23;;
76846;SDS011;65813;49.546;8.644;2023-04-25T12:34:23;5.77;;;2.60;;
76846;SDS011;65813;49.546;8.644;2023-04-25T12:38:25;5.75;;;2.75;;
76846;SDS011;65813;49.546;8.644;2023-04-25T12:42:35;6.45;;;3.10;;
76846;SDS011;65813;49.546;8.644;2023-04-25T12:46:36;6.33;;;3.60;;
76846;SDS011;65813;49.546;8.644;2023-04-25T12:50:37;5.13;;;2.97;;
76846;SDS011;65813;49.546;8.644;2023-04-25T12:54:37;5.97;;;2.90;;
76846;SDS011;65813;49.546;8.644;2023-04-25T12:58:38;5.45;;;2.70;;
76846;SDS011;65813;49.546;8.644;2023-04-25T13:02:39;6.05;;;2.92;;
76846;SDS011;65813;49.546;8.644;2023-04-25T13:06:40;6.22;;;2.92;;
76846;SDS011;65813;49.546;8.644;2023-04-25T13:10:40;5.87;;;2.87;;
76846;SDS011;65813;49.546;8.644;2023-04-25T13:14:40;6.75;;;3.15;;
76846;SDS011;65813;49.546;8.644;2023-04-25T13:18:41;5.30;;;3.10;;
76846;SDS011;65813;49.546;8.644;2023-04-25T13:22:41;7.00;;;3.35;;
76846;SDS011;65813;49.546;8.644;2023-04-25T13:26:43;8.85;;;3.83;;
76846;SDS011;65813;49.546;8.644;2023-04-25T13:30:43;6.60;;;3.35;;
76846;SDS011;65813;49.546;8.644;2023-04-25T13:34:44;5.45;;;2.83;;
76846;SDS011;65813;49.546;8.644;2023-04-25T13:38:44;6.80;;;3.63;;
76846;SDS011;65813;49.546;8.644;2023-04-25T13:42:47;8.10;;;3.33;;
76846;SDS011;65813;49.546;8.644;2023-04-25T13:46:47;6.78;;;3.70;;
76846;SDS011;65813;49.546;8.644;2023-04-25T13:50:48;9.88;;;3.70;;
76846;SDS011;65813;49.546;8.644;2023-04-25T13:54:48;9.13;;;3.67;;
76846;SDS011;65813;49.546;8.644;2023-04-25T13:58:51;9.93;;;4.13;;
76846;SDS011;65813;49.546;8.644;2023-04-25T14:02:52;5.55;;;3.40;;
76846;SDS011;65813;49.546;8.644;2023-04-25T14:06:53;10.40;;;4.28;;
76846;SDS011;65813;49.546;8.644;2023-04-25T14:10:54;8.43;;;3.63;;
76846;SDS011;65813;49.546;8.644;2023-04-25T14:14:55;8.00;;;3.33;;
76846;SDS011;65813;49.546;8.644;2023-04-25T14:18:55;7.03;;;3.73;;
76846;SDS011;65813;49.546;8.644;2023-04-25T14:22:56;8.82;;;4.00;;
76846;SDS011;65813;49.546;8.644;2023-04-25T14:26:57;7.80;;;3.92;;
76846;SDS011;65813;49.546;8.644;2023-04-25T14:30:58;6.63;;;3.47;;
76846;SDS011;65813;49.546;8.644;2023-04-25T14:34:58;10.13;;;4.23;;
76846;SDS011;65813;49.546;8.644;2023-04-25T14:38:58;10.23;;;3.83;;
76846;SDS011;65813;49.546;8.644;2023-04-25T14:43:00;7.43;;;3.53;;
76846;SDS011;65813;49.546;8.644;2023-04-25T14:47:01;8.30;;;3.50;;
76846;SDS011;65813;49.546;8.644;2023-04-25T14:51:01;7.07;;;3.63;;
76846;SDS011;65813;49.546;8.644;2023-04-25T14:55:02;5.53;;;3.20;;
76846;SDS011;65813;49.546;8.644;2023-04-25T14:59:05;10.23;;;3.70;;
76846;SDS011;65813;49.546;8.644;2023-04-25T15:03:06;8.18;;;3.42;;
76846;SDS011;65813;49.546;8.644;2023-04-25T15:07:07;7.25;;;3.22;;
76846;SDS011;65813;49.546;8.644;2023-04-25T15:11:08;7.03;;;3.35;;
76846;SDS011;65813;49.546;8.644;2023-04-25T15:15:11;8.45;;;3.42;;
76846;SDS011;65813;49.546;8.644;2023-04-25T15:19:11;7.07;;;2.90;;
76846;SDS011;65813;49.546;8.644;2023-04-25T15:23:12;6.57;;;3.03;;
76846;SDS011;65813;49.546;8.644;2023-04-25T15:27:12;7.03;;;3.05;;
76846;SDS011;65813;49.546;8.644;2023-04-25T15:31:13;7.25;;;2.95;;
76846;SDS011;65813;49.546;8.644;2023-04-25T15:35:13;9.73;;;3.00;;
76846;SDS011;65813;49.546;8.644;2023-04-25T15:39:14;7.10;;;2.75;;
76846;SDS011;65813;49.546;8.644;2023-04-25T15:43:15;7.00;;;3.10;;
76846;SDS011;65813;49.546;8.644;2023-04-25T15:47:16;6.45;;;3.03;;
76846;SDS011;65813;49.546;8.644;2023-04-25T15:51:18;6.30;;;2.55;;
76846;SDS011;65813;49.546;8.644;2023-04-25T15:55:18;6.73;;;2.57;;
76846;SDS011;65813;49.546;8.644;2023-04-25T15:59:20;7.20;;;2.45;;
76846;SDS011;65813;49.546;8.644;2023-04-25T16:03:20;4.67;;;2.30;;
76846;SDS011;65813;49.546;8.644;2023-04-25T16:07:21;7.13;;;2.70;;
76846;SDS011;65813;49.546;8.644;2023-04-25T16:11:22;5.25;;;2.67;;
76846;SDS011;65813;49.546;8.644;2023-04-25T16:15:22;7.53;;;2.67;;
76846;SDS011;65813;49.546;8.644;2023-04-25T16:19:23;8.88;;;2.70;;
76846;SDS011;65813;49.546;8.644;2023-04-25T16:23:23;8.97;;;2.30;;
76846;SDS011;65813;49.546;8.644;2023-04-25T16:27:25;5.05;;;2.22;;
76846;SDS011;65813;49.546;8.644;2023-04-25T16:31:25;5.57;;;2.50;;
76846;SDS011;65813;49.546;8.644;2023-04-25T16:35:26;7.53;;;2.90;;
76846;SDS011;65813;49.546;8.644;2023-04-25T16:39:29;7.03;;;2.90;;
76846;SDS011;65813;49.546;8.644;2023-04-25T16:43:29;4.53;;;2.47;;
76846;SDS011;65813;49.546;8.644;2023-04-25T16:47:30;5.85;;;2.30;;
76846;SDS011;65813;49.546;8.644;2023-04-25T16:51:31;8.70;;;2.58;;
76846;SDS011;65813;49.546;8.644;2023-04-25T16:55:32;5.80;;;1.98;;
76846;SDS011;65813;49.546;8.644;2023-04-25T16:59:32;4.80;;;1.80;;
76846;SDS011;65813;49.546;8.644;2023-04-25T17:03:32;5.43;;;1.80;;
76846;SDS011;65813;49.546;8.644;2023-04-25T17:07:33;6.60;;;2.20;;
76846;SDS011;65813;49.546;8.644;2023-04-25T17:11:33;3.43;;;1.77;;
76846;SDS011;65813;49.546;8.644;2023-04-25T17:15:33;4.97;;;1.83;;
76846;SDS011;65813;49.546;8.644;2023-04-25T17:19:34;4.13;;;1.67;;
76846;SDS011;65813;49.546;8.644;2023-04-25T17:23:35;5.30;;;2.03;;
76846;SDS011;65813;49.546;8.644;2023-04-25T17:27:36;5.45;;;2.13;;
76846;SDS011;65813;49.546;8.644;2023-04-25T17:31:36;7.80;;;2.47;;
76846;SDS011;65813;49.546;8.644;2023-04-25T17:35:36;7.60;;;2.47;;
76846;SDS011;65813;49.546;8.644;2023-04-25T17:39:37;4.80;;;2.57;;
76846;SDS011;65813;49.546;8.644;2023-04-25T17:43:37;5.70;;;2.50;;
76846;SDS011;65813;49.546;8.644;2023-04-25T17:47:38;6.90;;;2.97;;
76846;SDS011;65813;49.546;8.644;2023-04-25T17:51:39;7.43;;;3.20;;
76846;SDS011;65813;49.546;8.644;2023-04-25T17:55:39;8.07;;;2.87;;
76846;SDS011;65813;49.546;8.644;2023-04-25T17:59:42;4.72;;;2.25;;
76846;SDS011;65813;49.546;8.644;2023-04-25T18:03:42;9.15;;;2.70;;
76846;SDS011;65813;49.546;8.644;2023-04-25T18:07:44;6.15;;;2.22;;
76846;SDS011;65813;49.546;8.644;2023-04-25T18:11:45;6.88;;;2.97;;
76846;SDS011;65813;49.546;8.644;2023-04-25T18:15:45;6.95;;;2.38;;
76846;SDS011;65813;49.546;8.644;2023-04-25T18:19:46;6.00;;;2.57;;
76846;SDS011;65813;49.546;8.644;2023-04-25T18:23:47;8.95;;;2.53;;
76846;SDS011;65813;49.546;8.644;2023-04-25T18:27:48;5.95;;;2.20;;
76846;SDS011;65813;49.546;8.644;2023-04-25T18:31:49;6.22;;;1.80;;
76846;SDS011;65813;49.546;8.644;2023-04-25T18:35:50;10.20;;;2.13;;
76846;SDS011;65813;49.546;8.644;2023-04-25T18:39:50;5.57;;;1.80;;
76846;SDS011;65813;49.546;8.644;2023-04-25T18:43:50;7.70;;;2.05;;
76846;SDS011;65813;49.546;8.644;2023-04-25T18:47:51;4.55;;;1.63;;
76846;SDS011;65813;49.546;8.644;2023-04-25T18:51:51;5.40;;;1.90;;
76846;SDS011;65813;49.546;8.644;2023-04-25T18:55:55;7.95;;;1.63;;
76846;SDS011;65813;49.546;8.644;2023-04-25T18:59:55;6.43;;;2.03;;
76846;SDS011;65813;49.546;8.644;2023-04-25T19:03:55;5.70;;;1.80;;
76846;SDS011;65813;49.546;8.644;2023-04-25T19:07:56;7.80;;;2.00;;
76846;SDS011;65813;49.546;8.644;2023-04-25T19:11:56;3.83;;;1.60;;
76846;SDS011;65813;49.546;8.644;2023-04-25T19:15:57;8.00;;;1.80;;
76846;SDS011;65813;49.546;8.644;2023-04-25T19:19:57;3.73;;;1.57;;
76846;SDS011;65813;49.546;8.644;2023-04-25T19:23:57;6.57;;;2.00;;
76846;SDS011;65813;49.546;8.644;2023-04-25T19:27:59;5.35;;;1.90;;
76846;SDS011;65813;49.546;8.644;2023-04-25T19:32:00;5.47;;;1.65;;
76846;SDS011;65813;49.546;8.644;2023-04-25T19:36:02;7.88;;;2.40;;
76846;SDS011;65813;49.546;8.644;2023-04-25T19:40:03;4.70;;;1.90;;
76846;SDS011;65813;49.546;8.644;2023-04-25T19:44:06;6.45;;;2.28;;
76846;SDS011;65813;49.546;8.644;2023-04-25T19:48:08;9.70;;;2.58;;
76846;SDS011;65813;49.546;8.644;2023-04-25T19:52:09;3.80;;;1.88;;
76846;SDS011;65813;49.546;8.644;2023-04-25T19:56:13;3.75;;;1.92;;
76846;SDS011;65813;49.546;8.644;2023-04-25T20:00:15;4.57;;;2.10;;
76846;SDS011;65813;49.546;8.644;2023-04-25T20:04:17;7.30;;;2.45;;
76846;SDS011;65813;49.546;8.644;2023-04-25T20:08:17;7.18;;;2.05;;
76846;SDS011;65813;49.546;8.644;2023-04-25T20:12:18;4.75;;;1.80;;
76846;SDS011;65813;49.546;8.644;2023-04-25T20:16:19;6.80;;;2.13;;
76846;SDS011;65813;49.546;8.644;2023-04-25T20:20:20;3.42;;;1.50;;
76846;SDS011;65813;49.546;8.644;2023-04-25T20:24:21;7.90;;;2.20;;
76846;SDS011;65813;49.546;8.644;2023-04-25T20:28:21;7.75;;;1.75;;
76846;SDS011;65813;49.546;8.644;2023-04-25T20:32:22;5.10;;;1.90;;
76846;SDS011;65813;49.546;8.644;2023-04-25T20:36:23;4.43;;;1.73;;
76846;SDS011;65813;49.546;8.644;2023-04-25T20:40:23;5.67;;;2.00;;
76846;SDS011;65813;49.546;8.644;2023-04-25T20:44:24;6.47;;;2.03;;
76846;SDS011;65813;49.546;8.644;2023-04-25T20:48:25;5.50;;;2.00;;
76846;SDS011;65813;49.546;8.644;2023-04-25T20:52:26;9.55;;;2.25;;
76846;SDS011;65813;49.546;8.644;2023-04-25T20:56:26;7.22;;;1.90;;
76846;SDS011;65813;49.546;8.644;2023-04-25T21:00:27;5.82;;;1.73;;
76846;SDS011;65813;49.546;8.644;2023-04-25T21:04:28;9.63;;;2.47;;
76846;SDS011;65813;49.546;8.644;2023-04-25T21:08:28;7.33;;;2.93;;
76846;SDS011;65813;49.546;8.644;2023-04-25T21:12:28;7.97;;;2.57;;
